Time;durP1;ratioP1;P1;durP2;ratioP2;P2;SDS_P1;SDS_P2;PMS_P1;PMS_P2;Temp;Humidity;BMP_temperature;BMP_pressure;BME280_temperature;BME280_humidity;BME280_pressure;Samples;Min_cycle;Max_cycle;Signal;HPM_P1;HPM_P2
2023/10/27 00:00:43;;;;;;;16.35;3.88;;;;;;;16.79;66.24;93659.22;4213226;28;20044;-72
2023/10/27 00:02:47;;;;;;;14.00;3.60;;;;;;;16.76;66.35;93662.34;4195350;28;20062;-70
2023/10/27 00:04:48;;;;;;;11.73;3.50;;;;;;;16.77;66.26;93658.63;4212520;28;20052;-70
2023/10/27 00:06:51;;;;;;;8.15;3.03;;;;;;;16.75;66.18;93655.41;4212081;28;20076;-71
2023/10/27 00:08:53;;;;;;;11.23;3.55;;;;;;;16.72;66.25;93655.88;4214205;28;20044;-73
2023/10/27 00:10:55;;;;;;;11.45;3.35;;;;;;;16.73;66.12;93657.47;4214476;28;20052;-72
2023/10/27 00:12:57;;;;;;;10.50;3.47;;;;;;;16.72;66.03;93666.44;4214792;28;20458;-73
2023/10/27 00:14:59;;;;;;;9.13;3.70;;;;;;;16.67;66.20;93666.31;4213276;28;20048;-70
2023/10/27 00:17:03;;;;;;;7.90;3.50;;;;;;;16.69;66.43;93658.97;4214589;28;20489;-69
2023/10/27 00:19:05;;;;;;;8.40;3.50;;;;;;;16.70;66.22;93660.56;4213937;28;20052;-71
2023/10/27 00:21:07;;;;;;;9.93;3.13;;;;;;;16.70;66.32;93667.69;4214756;28;20048;-71
2023/10/27 00:23:09;;;;;;;14.07;3.50;;;;;;;16.69;66.38;93660.78;4210778;28;20131;-69
2023/10/27 00:25:12;;;;;;;9.88;3.42;;;;;;;16.63;66.10;93649.28;4196506;28;20439;-70
2023/10/27 00:27:14;;;;;;;10.43;3.92;;;;;;;16.59;66.43;93645.44;4213620;28;20052;-71
2023/10/27 00:29:16;;;;;;;12.10;3.42;;;;;;;16.59;66.65;93666.59;4213518;28;20063;-71
2023/10/27 00:31:18;;;;;;;11.13;3.40;;;;;;;16.58;66.33;93659.69;4214486;28;20056;-72
2023/10/27 00:33:20;;;;;;;9.88;3.95;;;;;;;16.53;66.38;93659.56;4214492;28;20051;-70
2023/10/27 00:35:22;;;;;;;12.85;3.85;;;;;;;16.49;66.72;93661.81;4196364;28;20048;-72
2023/10/27 00:37:24;;;;;;;9.98;4.10;;;;;;;16.49;66.66;93658.38;4211133;28;20082;-70
2023/10/27 00:39:25;;;;;;;8.25;3.40;;;;;;;16.34;67.20;93646.31;4208952;28;20048;-70
2023/10/27 00:41:28;;;;;;;12.02;3.90;;;;;;;16.33;67.27;93636.78;4213538;28;20052;-71
2023/10/27 00:43:29;;;;;;;9.82;3.75;;;;;;;16.34;67.24;93648.16;4209132;28;20465;-70
2023/10/27 00:45:31;;;;;;;10.95;3.63;;;;;;;16.40;67.30;93649.13;4213402;28;20087;-70
2023/10/27 00:47:33;;;;;;;8.00;3.03;;;;;;;16.43;67.05;93632.81;4195878;28;20048;-71
2023/10/27 00:49:35;;;;;;;10.73;4.15;;;;;;;16.46;66.89;93629.75;4213393;28;20051;-72
2023/10/27 00:51:38;;;;;;;9.88;3.28;;;;;;;16.54;66.81;93632.91;4213541;28;20066;-71
2023/10/27 00:53:40;;;;;;;9.23;2.97;;;;;;;16.57;66.51;93640.38;4213852;28;20055;-70
2023/10/27 00:55:42;;;;;;;8.60;3.28;;;;;;;16.61;66.78;93645.25;4213508;28;20048;-70
2023/10/27 00:57:44;;;;;;;8.93;2.97;;;;;;;16.53;66.65;93643.69;4210978;28;20080;-71
2023/10/27 00:59:47;;;;;;;11.38;3.60;;;;;;;16.25;67.60;93642.38;4193316;28;20135;-71
2023/10/27 01:01:49;;;;;;;7.80;3.38;;;;;;;16.22;67.99;93661.31;4194627;28;20050;-69
2023/10/27 01:03:51;;;;;;;10.38;3.25;;;;;;;16.24;67.86;93653.97;4195363;28;20078;-71
2023/10/27 01:05:54;;;;;;;11.60;3.78;;;;;;;16.17;67.91;93658.50;4196190;28;20052;-71
2023/10/27 01:07:56;;;;;;;10.85;3.20;;;;;;;16.09;68.41;93664.06;4183119;28;20398;-73
2023/10/27 01:09:58;;;;;;;10.18;3.55;;;;;;;16.12;68.20;93669.72;4207224;28;20488;-72
2023/10/27 01:12:04;;;;;;;7.97;3.17;;;;;;;16.15;68.29;93661.38;4194713;28;20103;-72
2023/10/27 01:14:07;;;;;;;9.73;3.65;;;;;;;16.22;68.32;93660.47;4210648;28;20082;-71
2023/10/27 01:16:09;;;;;;;9.52;3.53;;;;;;;16.30;67.96;93668.13;4201282;28;20416;-71
2023/10/27 01:18:11;;;;;;;11.27;3.53;;;;;;;16.34;67.86;93664.03;4201006;28;20055;-72
2023/10/27 01:20:13;;;;;;;9.77;3.55;;;;;;;16.41;67.78;93659.47;4213139;28;20488;-72
2023/10/27 01:22:15;;;;;;;10.30;3.63;;;;;;;16.41;67.94;93656.03;4195614;28;20048;-70
2023/10/27 01:24:18;;;;;;;12.45;3.78;;;;;;;16.46;67.56;93658.84;4211317;28;20149;-70
2023/10/27 01:26:21;;;;;;;;;;;;;;;16.50;67.41;93660.81;4213844;28;20102;-70
2023/10/27 01:28:23;;;;;;;8.18;3.35;;;;;;;16.52;67.54;93664.03;4193533;28;19920;-69
2023/10/27 01:30:24;;;;;;;8.77;3.83;;;;;;;16.49;67.34;93667.09;4212266;28;20040;-70
2023/10/27 01:32:26;;;;;;;8.93;3.65;;;;;;;16.49;67.24;93661.03;4212795;28;20066;-71
2023/10/27 01:34:28;;;;;;;13.30;3.85;;;;;;;16.38;67.50;93652.00;4213146;28;20048;-71
2023/10/27 01:36:30;;;;;;;11.15;3.72;;;;;;;16.36;67.81;93667.25;4194580;28;20055;-71
2023/10/27 01:38:31;;;;;;;9.13;3.75;;;;;;;16.35;67.88;93665.66;4212907;28;20126;-70
2023/10/27 01:40:34;;;;;;;8.65;3.58;;;;;;;16.28;68.05;93655.16;4205743;28;20052;-72
2023/10/27 01:42:37;;;;;;;10.63;4.07;;;;;;;16.25;68.05;93673.28;4206724;28;20528;-69
2023/10/27 01:44:40;;;;;;;12.90;4.18;;;;;;;16.20;68.39;93667.81;4193443;28;20051;-72
2023/10/27 01:46:43;;;;;;;10.55;3.20;;;;;;;16.22;68.66;93668.41;4212658;28;20036;-71
2023/10/27 01:48:45;;;;;;;11.15;3.67;;;;;;;16.24;68.04;93674.28;4213299;28;20120;-69
2023/10/27 01:50:48;;;;;;;10.68;3.65;;;;;;;16.18;68.44;93666.22;4209104;28;20090;-71
2023/10/27 01:52:50;;;;;;;11.35;4.00;;;;;;;16.19;68.69;93651.16;4203804;28;20044;-70
2023/10/27 01:54:53;;;;;;;12.82;4.10;;;;;;;16.25;68.46;93652.13;4208396;28;20077;-71
2023/10/27 01:56:59;;;;;;;11.00;3.90;;;;;;;16.31;68.06;93659.19;4193164;28;20554;-70
2023/10/27 01:59:02;;;;;;;14.88;4.55;;;;;;;16.33;68.05;93660.59;4208640;28;20072;-72
2023/10/27 02:01:04;;;;;;;10.93;3.67;;;;;;;16.31;67.93;93659.19;4209646;28;20103;-70
2023/10/27 02:03:05;;;;;;;16.60;4.50;;;;;;;16.23;68.46;93652.34;4203980;28;20408;-71
2023/10/27 02:05:08;;;;;;;12.65;3.92;;;;;;;16.26;68.38;93651.94;4213174;28;20056;-71
2023/10/27 02:07:12;;;;;;;8.13;3.60;;;;;;;16.33;68.16;93655.28;4212998;28;20055;-69
2023/10/27 02:09:14;;;;;;;10.63;4.47;;;;;;;16.36;68.10;93648.75;4194430;28;20045;-70
2023/10/27 02:11:20;;;;;;;11.40;3.72;;;;;;;16.43;68.04;93656.63;4213012;28;20458;-71
2023/10/27 02:13:23;;;;;;;11.32;3.20;;;;;;;16.49;67.74;93650.44;4194059;28;20044;-72
2023/10/27 02:15:26;;;;;;;11.77;3.87;;;;;;;16.56;67.45;93648.53;4207533;28;20075;-70
2023/10/27 02:17:28;;;;;;;10.80;4.00;;;;;;;16.55;67.31;93655.66;4203394;28;20590;-70
2023/10/27 02:19:30;;;;;;;11.57;4.10;;;;;;;16.53;67.27;93651.63;4190274;28;20128;-71
2023/10/27 02:21:31;;;;;;;11.95;4.45;;;;;;;16.53;67.54;93644.50;4207027;28;20451;-72
2023/10/27 02:23:37;;;;;;;9.80;4.15;;;;;;;16.54;67.60;93646.13;4202622;28;20048;-70
2023/10/27 02:25:38;;;;;;;10.23;3.80;;;;;;;16.59;67.69;93642.81;4212274;28;20565;-70
2023/10/27 02:27:41;;;;;;;10.88;4.40;;;;;;;16.61;67.61;93642.59;4194382;28;20299;-70
2023/10/27 02:29:43;;;;;;;12.77;4.88;;;;;;;16.65;67.31;93651.69;4211419;28;20134;-69
2023/10/27 02:31:45;;;;;;;13.27;4.55;;;;;;;16.63;67.41;93657.22;4212742;28;20052;-70
2023/10/27 02:33:47;;;;;;;11.98;4.40;;;;;;;16.52;67.71;93647.34;4211177;28;20079;-71
2023/10/27 02:35:49;;;;;;;12.38;4.28;;;;;;;16.36;68.53;93640.84;4194113;28;20136;-71
2023/10/27 02:37:50;;;;;;;13.40;4.57;;;;;;;15.71;70.36;93628.03;4207892;28;20050;-72
2023/10/27 02:39:52;;;;;;;10.88;4.28;;;;;;;15.74;70.75;93641.66;4190063;28;20040;-69
2023/10/27 02:41:54;;;;;;;12.10;4.45;;;;;;;15.83;70.69;93631.63;4211428;28;20048;-72
2023/10/27 02:43:57;;;;;;;13.13;4.25;;;;;;;15.93;70.31;93637.19;4185368;28;20057;-70
2023/10/27 02:46:02;;;;;;;10.02;3.85;;;;;;;16.03;69.84;93626.13;4213510;28;20419;-71
2023/10/27 02:48:04;;;;;;;10.65;4.13;;;;;;;15.87;70.24;93630.13;4196710;28;20091;-71
2023/10/27 02:50:07;;;;;;;11.48;4.25;;;;;;;15.84;70.75;93632.44;4212276;28;20036;-71
2023/10/27 02:52:08;;;;;;;13.48;4.70;;;;;;;15.91;70.56;93633.97;4202014;28;20126;-70
2023/10/27 02:54:10;;;;;;;15.07;5.28;;;;;;;15.90;70.55;93627.06;4214860;28;20139;-69
2023/10/27 02:56:12;;;;;;;13.20;4.32;;;;;;;15.99;70.42;93640.00;4215529;28;20086;-72
2023/10/27 02:58:14;;;;;;;13.75;4.18;;;;;;;16.01;69.90;93632.69;4213739;28;20432;-72
2023/10/27 03:00:16;;;;;;;12.50;4.30;;;;;;;15.81;70.69;93641.59;4203162;28;20634;-71
2023/10/27 03:02:18;;;;;;;15.70;4.30;;;;;;;15.89;70.79;93637.84;4215146;28;20512;-72
2023/10/27 03:04:20;;;;;;;10.27;4.70;;;;;;;16.02;70.38;93643.00;4197664;28;20099;-70
2023/10/27 03:06:22;;;;;;;15.35;4.53;;;;;;;16.00;70.04;93629.19;4215239;28;20051;-71
2023/10/27 03:08:24;;;;;;;15.43;5.05;;;;;;;15.75;70.89;93627.41;4192443;28;20426;-72
2023/10/27 03:10:26;;;;;;;14.38;4.50;;;;;;;15.61;71.30;93627.72;4215182;28;20048;-73
2023/10/27 03:12:28;;;;;;;13.02;4.30;;;;;;;15.70;71.34;93632.50;4196992;28;20458;-72
2023/10/27 03:14:30;;;;;;;13.90;4.32;;;;;;;15.77;70.85;93621.94;4214212;28;20105;-70
2023/10/27 03:16:34;;;;;;;15.07;5.32;;;;;;;15.79;71.02;93625.16;4214251;28;20078;-70
2023/10/27 03:18:36;;;;;;;;;;;;;;;15.85;70.94;93628.75;4215917;28;20468;-68
2023/10/27 03:20:39;;;;;;;8.90;4.78;;;;;;;15.90;70.76;93627.06;4196338;28;19924;-72
2023/10/27 03:22:41;;;;;;;14.38;4.63;;;;;;;15.90;70.36;93621.00;4213633;28;20056;-71
2023/10/27 03:24:45;;;;;;;11.30;4.38;;;;;;;15.67;71.20;93621.56;4214403;28;20044;-66
2023/10/27 03:26:46;;;;;;;17.00;4.60;;;;;;;15.72;71.28;93629.66;4215546;28;20054;-68
2023/10/27 03:28:48;;;;;;;9.68;4.57;;;;;;;15.83;71.10;93614.94;4213781;28;20121;-70
2023/10/27 03:30:50;;;;;;;10.25;4.28;;;;;;;15.92;70.78;93625.03;4196917;28;20050;-72
2023/10/27 03:32:52;;;;;;;12.25;4.63;;;;;;;15.91;70.49;93612.81;4215292;28;20048;-69
2023/10/27 03:34:53;;;;;;;13.75;4.57;;;;;;;15.94;70.71;93625.63;4215113;28;20055;-71
2023/10/27 03:36:57;;;;;;;12.13;4.25;;;;;;;16.03;70.26;93635.91;4193773;28;20132;-70
2023/10/27 03:38:59;;;;;;;9.90;3.97;;;;;;;16.11;70.20;93635.59;4205014;28;20056;-71
2023/10/27 03:41:01;;;;;;;14.52;4.78;;;;;;;16.16;69.72;93623.34;4214694;28;20058;-72
2023/10/27 03:43:06;;;;;;;10.88;4.70;;;;;;;16.20;69.57;93614.97;4215735;28;20047;-70
2023/10/27 03:45:09;;;;;;;9.43;4.80;;;;;;;16.23;69.64;93619.84;4214117;28;20408;-70
2023/10/27 03:47:11;;;;;;;13.88;4.60;;;;;;;16.27;69.24;93627.09;4212878;28;20040;-70
2023/10/27 03:49:13;;;;;;;12.23;4.53;;;;;;;16.25;69.30;93626.50;4196493;28;20443;-72
2023/10/27 03:51:15;;;;;;;13.82;4.63;;;;;;;16.18;69.48;93607.28;4214700;28;20044;-70
2023/10/27 03:53:20;;;;;;;10.38;4.90;;;;;;;16.20;69.67;93589.38;4214572;28;20060;-70
2023/10/27 03:55:22;;;;;;;11.45;5.25;;;;;;;16.25;69.64;93600.09;4214838;28;20454;-70
2023/10/27 03:57:24;;;;;;;15.45;4.72;;;;;;;16.26;69.50;93612.28;4214315;28;20043;-71
2023/10/27 03:59:26;;;;;;;12.48;4.65;;;;;;;16.25;69.12;93609.84;4212479;28;20131;-71
2023/10/27 04:01:28;;;;;;;15.90;4.80;;;;;;;16.18;69.50;93609.94;4211956;28;20056;-69
2023/10/27 04:03:31;;;;;;;11.05;4.60;;;;;;;16.21;69.55;93608.69;4214798;28;20127;-72
2023/10/27 04:05:35;;;;;;;15.57;5.20;;;;;;;16.23;69.39;93610.06;4196530;28;20036;-73
2023/10/27 04:07:37;;;;;;;11.73;5.13;;;;;;;16.22;69.57;93592.63;4196775;28;20126;-70
2023/10/27 04:09:39;;;;;;;16.23;5.45;;;;;;;16.12;69.90;93585.19;4214288;28;20054;-72
2023/10/27 04:11:40;;;;;;;12.82;5.10;;;;;;;16.11;69.85;93588.88;4213794;28;20075;-73
2023/10/27 04:13:42;;;;;;;18.50;5.93;;;;;;;16.11;69.68;93583.59;4213265;28;20052;-73
2023/10/27 04:15:45;;;;;;;12.43;4.43;;;;;;;16.09;69.80;93587.44;4213549;28;20172;-73
2023/10/27 04:17:47;;;;;;;13.35;4.93;;;;;;;16.05;69.76;93581.81;4214256;28;20104;-73
2023/10/27 04:19:50;;;;;;;12.73;4.97;;;;;;;16.02;70.13;93560.31;4214433;28;20237;-73
2023/10/27 04:21:52;;;;;;;11.98;4.60;;;;;;;16.04;70.26;93574.09;4214159;28;20047;-72
2023/10/27 04:23:54;;;;;;;11.75;4.57;;;;;;;16.05;69.83;93563.34;4213852;28;20048;-72
2023/10/27 04:25:55;;;;;;;17.33;4.68;;;;;;;16.07;70.04;93557.84;4197007;28;20479;-71
2023/10/27 04:27:57;;;;;;;13.95;4.97;;;;;;;16.04;69.88;93551.13;4214256;28;20068;-72
2023/10/27 04:30:04;;;;;;;13.45;4.45;;;;;;;15.71;71.21;93548.81;4195548;28;20056;-72
2023/10/27 04:32:06;;;;;;;12.10;4.90;;;;;;;15.36;72.29;93536.97;4198495;28;20052;-73
2023/10/27 04:34:08;;;;;;;14.73;4.85;;;;;;;15.50;72.25;93566.69;4214888;28;20135;-72
2023/10/27 04:36:10;;;;;;;14.80;5.23;;;;;;;15.64;71.80;93555.97;4194725;28;20052;-74
2023/10/27 04:38:12;;;;;;;9.85;4.30;;;;;;;15.80;71.50;93560.75;4195676;28;20049;-74
2023/10/27 04:40:15;;;;;;;10.68;4.45;;;;;;;15.84;71.00;93559.28;4213999;28;20135;-73
2023/10/27 04:42:18;;;;;;;19.20;5.10;;;;;;;15.92;70.88;93564.28;4213493;28;20138;-73
2023/10/27 04:44:23;;;;;;;16.75;4.47;;;;;;;16.00;70.46;93583.50;4202523;28;20197;-71
2023/10/27 04:46:26;;;;;;;16.42;5.40;;;;;;;15.89;70.49;93579.75;4187764;28;20439;-73
2023/10/27 04:48:28;;;;;;;16.93;5.77;;;;;;;15.57;71.76;93561.34;4210165;28;20060;-72
2023/10/27 04:50:33;;;;;;;13.57;5.50;;;;;;;15.48;72.32;93558.16;4211354;28;20097;-73
2023/10/27 04:52:36;;;;;;;12.35;4.88;;;;;;;15.59;72.21;93571.69;4196926;28;20476;-71
2023/10/27 04:54:37;;;;;;;13.23;5.40;;;;;;;15.68;71.79;93565.91;4196008;28;20086;-71
2023/10/27 04:56:39;;;;;;;13.05;5.97;;;;;;;15.72;71.73;93576.88;4212623;28;20056;-71
2023/10/27 04:58:42;;;;;;;13.80;6.38;;;;;;;15.83;71.40;93565.59;4201627;28;20040;-74
2023/10/27 05:00:44;;;;;;;20.90;6.22;;;;;;;15.90;71.29;93573.47;4212847;28;20490;-73
2023/10/27 05:02:47;;;;;;;18.20;5.00;;;;;;;16.00;71.11;93567.66;4195037;28;20048;-73
2023/10/27 05:04:49;;;;;;;19.38;6.28;;;;;;;16.06;70.81;93566.78;4211944;28;20062;-72
2023/10/27 05:06:51;;;;;;;23.83;5.38;;;;;;;16.00;70.62;93573.72;4204675;28;20050;-74
2023/10/27 05:08:52;;;;;;;15.60;5.63;;;;;;;15.83;70.94;93557.69;4210577;28;20048;-73
2023/10/27 05:10:54;;;;;;;15.48;5.40;;;;;;;15.47;72.49;93553.94;4212994;28;20048;-74
2023/10/27 05:12:58;;;;;;;18.83;5.60;;;;;;;15.57;72.37;93563.97;4196119;28;20060;-72
2023/10/27 05:15:01;;;;;;;11.68;4.65;;;;;;;15.61;72.17;93556.44;4211874;28;20052;-74
2023/10/27 05:17:02;;;;;;;11.38;5.10;;;;;;;15.73;72.00;93567.94;4212995;28;20050;-72
2023/10/27 05:19:04;;;;;;;20.23;6.50;;;;;;;15.85;71.57;93550.34;4213807;28;20481;-71
2023/10/27 05:21:15;;;;;;;18.98;5.65;;;;;;;15.87;71.12;93556.19;4213784;28;20044;-72
2023/10/27 05:23:17;;;;;;;20.63;5.63;;;;;;;15.94;71.23;93543.75;4208658;28;20048;-73
2023/10/27 05:25:19;;;;;;;15.73;5.45;;;;;;;15.99;70.91;93543.06;4190278;28;21163;-73
2023/10/27 05:27:20;;;;;;;20.42;5.45;;;;;;;15.99;70.91;93548.34;4213612;28;20052;-71
2023/10/27 05:29:23;;;;;;;18.42;4.78;;;;;;;16.05;70.56;93550.13;4211560;28;20134;-73
2023/10/27 05:31:24;;;;;;;18.88;5.53;;;;;;;15.88;70.92;93547.25;4195520;28;20092;-72
2023/10/27 05:33:26;;;;;;;16.38;4.53;;;;;;;15.94;70.82;93554.31;4192735;28;20052;-74
2023/10/27 05:35:28;;;;;;;16.50;5.43;;;;;;;16.03;70.96;93560.09;4209809;28;20048;-71
2023/10/27 05:37:30;;;;;;;17.15;5.47;;;;;;;16.16;70.56;93562.59;4212644;28;20449;-72
2023/10/27 05:39:32;;;;;;;15.55;5.30;;;;;;;16.29;69.97;93566.09;4194749;28;20174;-71
2023/10/27 05:41:34;;;;;;;18.60;5.22;;;;;;;16.39;69.57;93555.81;4202701;28;20056;-74
2023/10/27 05:43:35;;;;;;;14.57;5.43;;;;;;;16.50;69.14;93560.34;4209659;28;20052;-71
2023/10/27 05:45:37;;;;;;;17.00;6.55;;;;;;;16.58;68.97;93556.56;4212340;28;20112;-73
2023/10/27 05:47:41;;;;;;;16.08;5.32;;;;;;;16.68;68.42;93564.00;4212867;28;20075;-72
2023/10/27 05:49:43;;;;;;;14.60;5.10;;;;;;;16.74;68.05;93560.44;4189117;28;20055;-73
2023/10/27 05:51:47;;;;;;;15.45;5.68;;;;;;;16.83;67.81;93566.25;4212414;28;20062;-73
2023/10/27 05:53:48;;;;;;;22.05;5.25;;;;;;;16.90;67.70;93578.34;4201273;28;20050;-73
2023/10/27 05:55:51;;;;;;;18.85;5.15;;;;;;;16.97;67.17;93579.06;4203488;28;20052;-72
2023/10/27 05:57:53;;;;;;;14.30;5.07;;;;;;;17.01;67.13;93590.00;4213694;28;20058;-73
2023/10/27 05:59:55;;;;;;;17.27;5.68;;;;;;;17.00;66.91;93614.84;4210544;28;20054;-73
2023/10/27 06:01:56;;;;;;;19.30;6.35;;;;;;;17.01;67.06;93611.16;4211281;28;20039;-70
2023/10/27 06:04:16;;;;;;;21.85;5.20;;;;;;;16.62;67.87;93588.69;4212508;28;20102;-72
2023/10/27 06:06:21;;;;;;;16.92;5.80;;;;;;;16.62;68.29;93600.06;4208174;28;20102;-72
2023/10/27 06:08:23;;;;;;;14.38;5.18;;;;;;;16.70;68.20;93599.75;4205302;28;20051;-75
2023/10/27 06:10:25;;;;;;;18.67;5.82;;;;;;;16.82;67.80;93605.13;4182483;28;20048;-73
2023/10/27 06:12:27;;;;;;;19.52;5.50;;;;;;;16.95;67.39;93601.47;4209625;28;20139;-73
2023/10/27 06:14:29;;;;;;;18.23;5.07;;;;;;;17.05;67.12;93593.00;4211260;28;20389;-72
2023/10/27 06:16:31;;;;;;;20.08;5.40;;;;;;;17.16;67.10;93602.81;4212813;28;20067;-71
2023/10/27 06:18:34;;;;;;;18.42;5.28;;;;;;;17.18;66.44;93590.16;4205422;28;20059;-72
2023/10/27 06:20:37;;;;;;;12.65;5.75;;;;;;;17.14;66.51;93591.63;4177236;28;20056;-71
2023/10/27 06:22:39;;;;;;;17.95;5.22;;;;;;;17.14;66.13;93583.69;4199863;28;20048;-72
2023/10/27 06:24:40;;;;;;;14.25;6.05;;;;;;;17.06;66.45;93568.19;4193906;28;20048;-75
2023/10/27 06:26:42;;;;;;;15.13;5.47;;;;;;;17.15;66.55;93588.78;4195355;28;20476;-74
2023/10/27 06:28:46;;;;;;;18.10;5.13;;;;;;;17.34;66.28;93594.00;4211778;28;20119;-71
2023/10/27 06:30:48;;;;;;;13.75;4.72;;;;;;;17.55;65.49;93601.41;4209371;28;20144;-74
2023/10/27 06:32:49;;;;;;;20.23;5.45;;;;;;;17.65;65.01;93611.41;4212507;28;20040;-72
2023/10/27 06:34:51;;;;;;;15.07;5.03;;;;;;;17.68;64.63;93597.72;4213179;28;20054;-74
2023/10/27 06:36:54;;;;;;;13.25;4.22;;;;;;;17.36;65.09;93608.63;4204096;28;20134;-74
2023/10/27 06:39:01;;;;;;;13.68;4.53;;;;;;;17.43;65.43;93600.56;4200983;28;20052;-73
2023/10/27 06:41:03;;;;;;;17.85;5.50;;;;;;;17.49;65.41;93583.78;4202246;28;20048;-74
2023/10/27 06:43:06;;;;;;;24.35;5.55;;;;;;;17.20;65.88;93577.50;4195267;28;20485;-75
2023/10/27 06:45:08;;;;;;;20.30;5.30;;;;;;;17.29;65.96;93572.69;4210041;28;20048;-73
2023/10/27 06:47:12;;;;;;;11.50;4.80;;;;;;;17.17;65.97;93594.66;4199366;28;20060;-72
2023/10/27 06:49:14;;;;;;;16.55;5.15;;;;;;;17.33;65.73;93597.66;4212994;28;20079;-73
2023/10/27 06:51:16;;;;;;;18.75;5.63;;;;;;;17.06;65.98;93584.03;4212298;28;20067;-71
2023/10/27 06:53:20;;;;;;;14.60;4.82;;;;;;;16.69;67.46;93576.16;4212453;28;20105;-73
2023/10/27 06:55:22;;;;;;;17.70;5.63;;;;;;;16.68;67.86;93593.88;4193437;28;20131;-71
2023/10/27 06:57:24;;;;;;;16.25;5.38;;;;;;;16.78;67.35;93588.06;4194995;28;20052;-72
2023/10/27 06:59:29;;;;;;;13.60;5.60;;;;;;;16.98;67.26;93585.97;4210741;28;20044;-73
2023/10/27 07:01:32;;;;;;;13.55;4.72;;;;;;;17.16;66.86;93593.06;4210907;28;20052;-73
2023/10/27 07:03:35;;;;;;;16.85;5.20;;;;;;;17.35;66.00;93590.31;4193841;28;20533;-72
2023/10/27 07:05:37;;;;;;;17.17;5.13;;;;;;;17.50;65.75;93582.72;4192612;28;20044;-72
2023/10/27 07:07:41;;;;;;;16.92;4.57;;;;;;;17.44;64.91;93581.00;4200402;28;20047;-73
2023/10/27 07:09:43;;;;;;;;;;;;;;;17.50;64.86;93592.53;4185749;28;20090;-73
2023/10/27 07:11:45;;;;;;;16.25;5.80;;;;;;;17.40;64.87;93574.53;4212783;28;20324;-71
2023/10/27 07:13:48;;;;;;;12.43;4.63;;;;;;;17.53;65.02;93587.59;4210828;28;20044;-74
2023/10/27 07:15:50;;;;;;;12.80;5.63;;;;;;;17.68;64.79;93588.94;4211923;28;20044;-74
2023/10/27 07:17:53;;;;;;;16.38;5.88;;;;;;;17.54;65.04;93577.78;4193826;28;20091;-71
2023/10/27 07:19:55;;;;;;;;;;;;;;;17.56;64.64;93587.13;4212955;28;20048;-73
2023/10/27 07:21:58;;;;;;;12.98;5.63;;;;;;;17.58;64.80;93585.03;4211230;28;20373;-74
2023/10/27 07:24:00;;;;;;;18.13;5.80;;;;;;;17.74;64.76;93586.19;4203457;28;20048;-72
2023/10/27 07:26:13;;;;;;;16.90;5.05;;;;;;;17.43;64.17;93574.09;4194518;28;20045;-73
2023/10/27 07:28:15;;;;;;;13.90;5.13;;;;;;;17.14;65.72;93566.00;4212165;28;20460;-73
2023/10/27 07:30:17;;;;;;;17.38;6.20;;;;;;;16.92;66.48;93555.13;4192809;28;20048;-72
2023/10/27 07:32:21;;;;;;;17.80;6.43;;;;;;;16.93;66.57;93569.97;4212501;28;20557;-72
2023/10/27 07:34:22;;;;;;;20.42;5.70;;;;;;;17.18;66.22;93569.78;4215507;28;20408;-72
2023/10/27 07:36:25;;;;;;;12.65;5.63;;;;;;;17.42;65.88;93591.00;4185128;28;20077;-75
2023/10/27 07:38:26;;;;;;;16.92;5.65;;;;;;;17.66;64.95;93593.69;4206000;28;20049;-73
2023/10/27 07:40:28;;;;;;;19.48;5.90;;;;;;;17.87;64.52;93589.69;4206944;28;20135;-73
2023/10/27 07:42:31;;;;;;;22.13;6.95;;;;;;;18.01;64.15;93586.56;4193005;28;20049;-72
2023/10/27 07:44:33;;;;;;;16.80;5.40;;;;;;;18.17;63.56;93593.00;4212017;28;20106;-73
2023/10/27 07:46:35;;;;;;;21.17;5.93;;;;;;;18.32;62.96;93595.16;4214494;28;20048;-73
2023/10/27 07:48:37;;;;;;;17.77;6.18;;;;;;;18.54;62.39;93591.88;4196734;28;20555;-72
2023/10/27 07:50:40;;;;;;;18.60;7.00;;;;;;;18.52;61.73;93588.66;4210072;28;20496;-72
2023/10/27 07:52:42;;;;;;;16.45;6.93;;;;;;;18.44;61.84;93602.31;4207791;28;20450;-74
2023/10/27 07:54:44;;;;;;;24.48;7.38;;;;;;;18.24;62.24;93586.75;4192424;28;20048;-72
2023/10/27 07:56:46;;;;;;;26.02;7.78;;;;;;;18.40;62.47;93592.16;4195566;28;20103;-71
2023/10/27 07:58:48;;;;;;;17.80;6.68;;;;;;;18.57;61.83;93583.47;4190994;28;20053;-72
2023/10/27 08:00:53;;;;;;;19.80;6.53;;;;;;;18.70;61.59;93587.69;4186557;28;20128;-72
2023/10/27 08:02:56;;;;;;;16.60;6.28;;;;;;;18.78;60.92;93579.41;4206948;28;20077;-72
2023/10/27 08:04:58;;;;;;;15.85;6.95;;;;;;;18.91;60.98;93581.75;4214363;28;20099;-74
2023/10/27 08:07:00;;;;;;;12.37;5.60;;;;;;;18.68;60.25;93572.00;4204399;28;20155;-72
2023/10/27 08:09:03;;;;;;;14.13;5.60;;;;;;;18.53;60.71;93577.81;4211702;28;20139;-76
2023/10/27 08:11:06;;;;;;;17.05;6.50;;;;;;;18.50;61.14;93562.38;4214460;28;20127;-77
2023/10/27 08:13:08;;;;;;;18.33;6.65;;;;;;;18.76;60.90;93558.38;4214377;28;20134;-73
2023/10/27 08:15:11;;;;;;;19.55;5.88;;;;;;;19.05;60.03;93571.63;4202963;28;20390;-73
2023/10/27 08:17:13;;;;;;;19.90;5.43;;;;;;;19.30;59.30;93578.44;4211649;28;20079;-74
2023/10/27 08:19:14;;;;;;;23.52;6.45;;;;;;;19.17;58.81;93568.94;4195916;28;20052;-72
2023/10/27 08:21:16;;;;;;;14.95;5.10;;;;;;;18.69;59.85;93546.28;4214410;28;20133;-73
2023/10/27 08:23:18;;;;;;;15.18;6.53;;;;;;;18.89;59.86;93545.91;4196494;28;20055;-73
2023/10/27 08:25:25;;;;;;;18.45;6.20;;;;;;;19.13;59.62;93543.91;4214189;28;20047;-74
2023/10/27 08:27:26;;;;;;;16.88;5.88;;;;;;;19.37;58.92;93548.03;4211999;28;20119;-72
2023/10/27 08:29:28;;;;;;;19.85;6.70;;;;;;;19.19;58.30;93541.09;4200953;28;20098;-73
2023/10/27 08:31:30;;;;;;;14.82;6.03;;;;;;;19.14;58.63;93548.97;4210396;28;20048;-72
2023/10/27 08:33:32;;;;;;;16.08;5.50;;;;;;;19.07;58.19;93553.63;4208273;28;20066;-73
2023/10/27 08:35:34;;;;;;;12.18;3.35;;;;;;;19.05;55.81;93547.75;4207927;28;20127;-72
2023/10/27 08:37:36;;;;;;;11.60;3.95;;;;;;;19.18;56.19;93544.78;4213535;28;20043;-72
2023/10/27 08:39:38;;;;;;;11.73;4.15;;;;;;;19.32;56.02;93549.81;4190711;28;20053;-73
2023/10/27 08:41:41;;;;;;;8.73;4.03;;;;;;;19.37;55.84;93550.66;4189776;28;20053;-74
2023/10/27 08:43:43;;;;;;;10.95;4.65;;;;;;;19.30;55.92;93551.91;4182073;28;20516;-73
2023/10/27 08:45:47;;;;;;;12.98;4.15;;;;;;;19.20;55.89;93539.25;4195702;28;20093;-74
2023/10/27 08:47:53;;;;;;;9.65;3.35;;;;;;;19.35;55.18;93550.09;4174335;28;20096;-73
2023/10/27 08:49:54;;;;;;;9.30;3.33;;;;;;;19.57;54.41;93546.72;4191826;28;20108;-74
2023/10/27 08:51:59;;;;;;;8.38;2.85;;;;;;;19.78;53.87;93567.25;4212050;28;20044;-71
2023/10/27 08:54:02;;;;;;;7.60;3.60;;;;;;;19.75;53.80;93535.09;4207232;28;20048;-71
2023/10/27 08:56:04;;;;;;;11.45;3.17;;;;;;;19.82;53.28;93544.47;4213372;28;20054;-73
2023/10/27 08:58:08;;;;;;;9.63;2.47;;;;;;;19.88;52.37;93550.69;4196475;28;20056;-72
2023/10/27 09:00:10;;;;;;;9.20;2.75;;;;;;;19.92;52.43;93540.34;4181392;28;20048;-72
2023/10/27 09:02:14;;;;;;;7.38;2.90;;;;;;;20.02;51.70;93543.94;4213611;28;20074;-72
2023/10/27 09:04:20;;;;;;;11.32;2.75;;;;;;;20.10;51.62;93545.38;4212629;28;20492;-74
2023/10/27 09:06:22;;;;;;;11.57;2.35;;;;;;;20.06;52.02;93533.63;4195398;28;20128;-73
2023/10/27 09:08:24;;;;;;;7.22;2.47;;;;;;;20.17;51.55;93548.66;4206227;28;20116;-73
2023/10/27 09:10:26;;;;;;;7.93;1.98;;;;;;;20.41;51.31;93540.44;4209075;28;20048;-74
2023/10/27 09:12:30;;;;;;;12.38;2.92;;;;;;;20.64;51.07;93534.09;4195855;28;20544;-73
2023/10/27 09:14:33;;;;;;;7.18;2.17;;;;;;;20.59;50.46;93532.19;4203219;28;20473;-74
2023/10/27 09:16:35;;;;;;;14.68;2.10;;;;;;;20.72;49.82;93530.97;4187253;28;20090;-75
2023/10/27 09:18:36;;;;;;;8.95;1.77;;;;;;;20.79;49.96;93515.63;4192585;28;20531;-74
2023/10/27 09:20:52;;;;;;;6.60;2.47;;;;;;;21.10;49.93;93523.09;4194615;28;20060;-74
2023/10/27 09:23:05;;;;;;;6.60;2.30;;;;;;;21.20;48.59;93516.00;4209540;28;20119;-75
2023/10/27 09:25:15;;;;;;;5.05;1.67;;;;;;;21.33;48.23;93504.09;4210922;28;20048;-74
2023/10/27 09:27:25;;;;;;;7.43;2.00;;;;;;;21.55;48.27;93504.03;4213413;28;20084;-73
2023/10/27 09:29:27;;;;;;;8.05;2.63;;;;;;;21.72;48.14;93498.53;4194587;28;20483;-73
2023/10/27 09:31:35;;;;;;;8.77;2.67;;;;;;;21.83;47.98;93494.91;4213434;28;20083;-73